Weather at Indira Gandhi International Airport

Public forecast

Using degrees Celsius for public forecast. Weather courtesy of forecast.io.

Current aviation weather report (METAR) for Indira Gandhi International Airport

Retrieved 2020/11/28 01:30 UTC (0 seconds ago):

VIDP 280130Z 25004KT 1200 R28/2000 R29/2000 BR NSC 12/09 Q1020 NOSIG

Aviation forecast (TAF) for Indira Gandhi International Airport

Retrieved 2020-11-28 00:00 UTC (1 hour ago):

TAF VIDP 272300Z 2800/2906 29006KT 1200 BR NSC BECMG 2804/2806 32009KT 2500 BR HZ BECMG 2809/2811 4000 HZ BECMG 2818/2820 27004KT 3000 HZ BR FEW100 BECMG 2901/2903 1500 BR BECMG 2904/2906 29006KT 2500 BR HZ SCT100